Flight Track Log - Related Links

Times and Time Zones

All times are in EDT time to prevent confusion due to time zone crossing. See the N118BJ flight status page for this flight to view local times or setup timezone preferences in your user account.

Time Position Orientation Groundspeed Altitude Reporting Facility
EDT Latitude Longitude Course Direction KTS MPH feet Rate Location/Type
Sun 06:12:08 PM 36.3650 -85.4919 245° Southwest 72 83 6,100  Level Indianapolis Center
Sun 06:13:10 PM 36.3561 -85.5139 243° Southwest 72 83 6,500 439 Climbing Indianapolis Center
Sun 06:14:11 PM 36.3472 -85.5353 243° Southwest 71 82 7,000 439 Climbing Indianapolis Center
Sun 06:15:13 PM 36.3392 -85.5578 246° West 72 83 7,400 435 Climbing Indianapolis Center
Sun 06:16:00 PM 36.3622 -85.4655 251° West  Level FlightAware Approximate
Sun 06:16:15 PM 36.3289 -85.5850 245° Southwest 73 84 7,900  Level Indianapolis Center
Sun 06:17:17 PM 36.3231 -85.6144 256° West 84 97 8,100 49 Climbing Indianapolis Center
Sun 06:18:18 PM 36.3097 -85.6483 244° Southwest 103 119 8,000 -49 Descending Indianapolis Center
Sun 06:19:20 PM 36.3003 -85.6828 251° West 107 123 8,000  Level Indianapolis Center
Sun 06:20:22 PM 36.2950 -85.7194 260° West 107 123 8,000  Level Indianapolis Center
Sun 06:21:59 PM 36.2833 -85.7833 257° West 105 121 8,000 51 Level Nashville TRACON
Sun 06:22:20 PM 36.2808 -85.7872 231° Southwest 106 122 8,100 74 Climbing Memphis Center
Sun 06:23:20 PM 36.2739 -85.8314 259° West 106 122 8,100  Level Memphis Center
Sun 06:24:20 PM 36.2692 -85.8703 261° West 112 129 8,100  Level Memphis Center
Sun 06:25:20 PM 36.2639 -85.8989 257° West 112 129 8,100 -50 Level Memphis Center
Sun 06:26:20 PM 36.2611 -85.9375 265° West 107 123 8,000 -50 Descending Memphis Center
Sun 06:27:20 PM 36.2542 -85.9742 257° West 107 123 8,000 50 Level Memphis Center
Sun 06:28:20 PM 36.2428 -86.0081 247° West 107 123 8,100  Climbing Memphis Center
Sun 06:29:20 PM 36.2336 -86.0419 251° West 107 123 8,000  Descending Memphis Center
Sun 06:30:20 PM 36.2225 -86.0811 251° West 112 129 8,100 50 Climbing Memphis Center
Sun 06:31:20 PM 36.2133 -86.1203 254° West 112 129 8,100  Level Memphis Center
Sun 06:32:20 PM 36.2042 -86.1594 254° West 112 129 8,100  Level Memphis Center
Sun 06:33:20 PM 36.1950 -86.1958 253° West 112 129 8,100  Level Memphis Center
Sun 06:34:54 PM 36.1833 -86.2500 255° West 117 135 8,100  Level Nashville TRACON
Sun 06:35:48 PM 36.1667 -86.2833 238° Southwest 119 137 8,100  Level Nashville TRACON
Sun 06:36:48 PM 36.1667 -86.3333 270° West 119 137 8,100  Level Nashville TRACON
Sun 06:37:48 PM 36.1500 -86.3667 238° Southwest 118 136 8,100 -53 Level Nashville TRACON
Sun 06:38:42 PM 36.1500 -86.4000 270° West 118 136 8,000  Descending Nashville TRACON
Sun 06:39:42 PM 36.1333 -86.4333 238° Southwest 116 133 8,100 50 Climbing Nashville TRACON
Sun 06:40:42 PM 36.1333 -86.4833 270° West 116 133 8,100  Level Nashville TRACON
Sun 06:41:42 PM 36.1167 -86.5167 238° Southwest 115 132 8,100  Level Nashville TRACON
Sun 06:42:42 PM 36.1167 -86.5500 270° West 117 135 8,100  Level Nashville TRACON
Sun 06:43:42 PM 36.1000 -86.5833 238° Southwest 116 133 8,100  Level Nashville TRACON
Sun 06:44:42 PM 36.0833 -86.6333 248° West 116 133 8,100  Level Nashville TRACON
Sun 06:45:48 PM 36.0833 -86.6667 270° West 116 133 8,100  Level Nashville TRACON
Sun 06:46:54 PM 36.0667 -86.7167 248° West 114 131 8,100  Level Nashville TRACON
Sun 06:47:54 PM 36.0667 -86.7500 270° West 112 129 8,100  Level Nashville TRACON
Sun 06:48:54 PM 36.0500 -86.7833 238° Southwest 114 131 8,100  Level Nashville TRACON
Sun 06:49:54 PM 36.0500 -86.8167 270° West 116 133 8,100  Level Nashville TRACON
Sun 06:50:54 PM 36.0333 -86.8667 248° West 114 131 8,100  Level Nashville TRACON
Sun 06:51:54 PM 36.0167 -86.9000 238° Southwest 113 130 8,100  Level Nashville TRACON
Sun 06:52:54 PM 36.0167 -86.9333 270° West 113 130 8,100  Level Nashville TRACON
Sun 06:53:54 PM 36.0000 -86.9667 238° Southwest 113 130 8,100  Level Nashville TRACON
Sun 06:54:54 PM 36.0000 -87.0167 270° West 114 131 8,100  Level Nashville TRACON
Sun 06:55:54 PM 35.9833 -87.0500 238° Southwest 114 131 8,100  Level Nashville TRACON
Sun 06:56:54 PM 35.9833 -87.0833 270° West 115 132 8,100  Level Nashville TRACON
Sun 06:57:54 PM 35.9667 -87.1167 238° Southwest 115 132 8,100  Level Nashville TRACON
Sun 06:59:08 PM 35.9531 -87.1722 253° West 116 133 8,100  Level Memphis Center
Sun 07:00:08 PM 35.9414 -87.2061 247° West 116 133 8,100 -50 Level Memphis Center
Sun 07:01:08 PM 35.9317 -87.2422 252° West 116 133 8,000  Descending Memphis Center
Sun 07:02:08 PM 35.9203 -87.2786 249° West 116 133 8,100 50 Climbing Memphis Center
Sun 07:03:08 PM 35.9128 -87.3147 256° West 111 128 8,100  Level Memphis Center
Sun 07:04:08 PM 35.9053 -87.3508 256° West 111 128 8,100  Level Memphis Center
Sun 07:05:08 PM 35.8958 -87.3872 252° West 111 128 8,100  Level Memphis Center
Sun 07:06:08 PM 35.8861 -87.4208 250° West 111 128 8,100  Level Memphis Center
Sun 07:07:08 PM 35.8808 -87.4594 260° West 111 128 8,100  Level Memphis Center
Sun 07:08:08 PM 35.8692 -87.4958 248° West 111 128 8,100  Level Memphis Center
Sun 07:09:08 PM 35.8594 -87.5294 250° West 111 128 8,100  Level Memphis Center
Sun 07:10:08 PM 35.8478 -87.5656 248° West 111 128 8,100 -50 Level Memphis Center
Sun 07:11:08 PM 35.8403 -87.6042 257° West 111 128 8,000  Descending Memphis Center
Sun 07:12:08 PM 35.8283 -87.6353 245° Southwest 111 128 8,100 50 Climbing Memphis Center
Sun 07:13:08 PM 35.8189 -87.6714 252° West 111 128 8,100  Level Memphis Center
Sun 07:14:08 PM 35.8111 -87.7050 254° West 111 128 8,100  Level Memphis Center
Sun 07:15:08 PM 35.8014 -87.7386 250° West 111 128 8,100  Level Memphis Center
Sun 07:16:08 PM 35.7939 -87.7772 257° West 116 133 8,100  Level Memphis Center
Sun 07:17:08 PM 35.7842 -87.8133 252° West 111 128 8,100 -50 Level Memphis Center
Sun 07:18:08 PM 35.7786 -87.8494 259° West 111 128 8,000 -50 Descending Memphis Center
Sun 07:19:08 PM 35.7753 -87.8853 263° West 106 122 8,000  Level Memphis Center
Sun 07:20:08 PM 35.7739 -87.9186 267° West 106 122 8,000  Level Memphis Center
Sun 07:21:08 PM 35.7703 -87.9544 263° West 106 122 8,000  Level Memphis Center
Sun 07:22:08 PM 35.7689 -87.9903 267° West 106 122 8,000  Level Memphis Center
Sun 07:23:08 PM 35.7550 -88.0242 243° Southwest 106 122 8,000  Level Memphis Center
Sun 07:24:08 PM 35.7389 -88.0553 237° Southwest 106 122 8,000  Level Memphis Center
Sun 07:25:08 PM 35.7269 -88.0914 248° West 114 131 8,000  Level Memphis Center
Sun 07:26:08 PM 35.7217 -88.1350 262° West 114 131 8,000  Level Memphis Center
Sun 07:27:08 PM 35.7158 -88.1633 256° West 108 124 8,000  Level Memphis Center
Sun 07:28:08 PM 35.7039 -88.2019 249° West 108 124 8,000  Level Memphis Center
Sun 07:29:08 PM 35.6964 -88.2378 256° West 108 124 8,000  Level Memphis Center
Sun 07:30:08 PM 35.6844 -88.2739 248° West 108 124 8,000 -50 Level Memphis Center
Sun 07:31:08 PM 35.6767 -88.3047 253° West 108 124 7,900  Descending Memphis Center
Sun 07:32:08 PM 35.6647 -88.3408 248° West 108 124 8,000 50 Climbing Memphis Center
Sun 07:33:08 PM 35.6547 -88.3769 251° West 113 130 8,000 -50 Level Memphis Center
Sun 07:34:08 PM 35.6428 -88.4156 249° West 113 130 7,900  Descending Memphis Center
Sun 07:35:08 PM 35.6331 -88.4514 252° West 113 130 8,000 50 Climbing Memphis Center
Sun 07:36:08 PM 35.6231 -88.4875 251° West 113 130 8,000  Level Memphis Center
Sun 07:37:08 PM 35.6153 -88.5233 255° West 113 130 8,000  Level Memphis Center
Sun 07:38:08 PM 35.6053 -88.5569 250° West 113 130 8,000  Level Memphis Center
Sun 07:39:08 PM 35.5933 -88.5928 248° West 113 130 8,000  Level Memphis Center
Sun 07:40:08 PM 35.5856 -88.6261 254° West 113 130 8,000  Level Memphis Center
Sun 07:41:08 PM 35.5756 -88.6622 251° West 113 130 8,000  Level Memphis Center
Sun 07:42:08 PM 35.5656 -88.6956 250° West 113 130 8,000  Level Memphis Center
Sun 07:43:08 PM 35.5556 -88.7314 251° West 113 130 8,000  Level Memphis Center
Sun 07:44:08 PM 35.5478 -88.7647 254° West 108 124 8,000  Level Memphis Center
Sun 07:45:08 PM 35.5397 -88.7956 252° West 113 130 8,000  Level Memphis Center
Sun 07:46:08 PM 35.5339 -88.8289 258° West 113 130 8,000  Level Memphis Center
Sun 07:47:08 PM 35.5239 -88.8647 251° West 113 130 8,000  Level Memphis Center
Sun 07:48:08 PM 35.5119 -88.8981 246° West 113 130 8,000  Level Memphis Center
Sun 07:49:08 PM 35.5039 -88.9339 255° West 113 130 8,000  Level Memphis Center
Sun 07:50:08 PM 35.4939 -88.9622 247° West 108 124 8,000  Level Memphis Center
Sun 07:51:08 PM 35.4839 -88.9981 251° West 108 124 8,000  Level Memphis Center
Sun 07:52:08 PM 35.4736 -89.0339 251° West 108 124 8,000 -200 Level Memphis Center
Sun 07:53:08 PM 35.4658 -89.0697 255° West 114 131 7,600 -400 Descending Memphis Center
Sun 07:54:08 PM 35.4619 -89.1081 263° West 119 137 7,200 -450 Descending Memphis Center
Sun 07:55:08 PM 35.4500 -89.1489 250° West 119 137 6,700 -450 Descending Memphis Center
Sun 07:56:08 PM 35.4397 -89.1847 251° West 119 137 6,300 -400 Descending Memphis Center
Sun 07:57:08 PM 35.4319 -89.2231 256° West 119 137 5,900 -200 Descending Memphis Center
Sun 07:58:08 PM 35.4197 -89.2589 247° West 125 144 5,900  Level Memphis Center
Sun 07:59:08 PM 35.4117 -89.2922 253° West 113 130 5,900 -50 Level Memphis Center
Sun 08:00:08 PM 35.4036 -89.3281 255° West 108 124 5,800 -300 Descending Memphis Center
Sun 08:01:08 PM 35.3914 -89.3636 247° West 108 124 5,300 -400 Descending Memphis Center
Sun 08:02:08 PM 35.3769 -89.3944 240° Southwest 115 132 5,000 -400 Descending Memphis Center
Sun 08:03:08 PM 35.3625 -89.4278 242° Southwest 115 132 4,500 -500 Descending Memphis Center
Sun 08:04:08 PM 35.3503 -89.4636 247° West 115 132 4,000 -250 Descending Memphis Center
Sun 08:05:08 PM 35.3381 -89.4967 246° West 115 132 4,000 -50 Level Memphis Center
Sun 08:06:08 PM 35.3236 -89.5275 240° Southwest 109 125 3,900 -50 Descending Memphis Center
Sun 08:07:08 PM 35.3114 -89.5658 249° West 114 131 3,900  Level Memphis Center
Sun 08:08:08 PM 35.2928 -89.5914 228° Southwest 114 131 3,900 36 Level Memphis Center
Sun 08:09:55 PM 35.2667 -89.6500 241° Southwest 110 127 4,000 39 Climbing KMEM
Sun 08:10:41 PM 35.2500 -89.6667 219° Southwest 110 127 4,000  Level KMEM
Sun 08:11:35 PM 35.2333 -89.7000 239° Southwest 116 133 4,000  Level KMEM
Sun 08:12:35 PM 35.2333 -89.7333 270° West 119 137 4,000 -50 Level KMEM
Sun 08:13:35 PM 35.2333 -89.7833 270° West 118 136 3,900 -200 Descending KMEM
Sun 08:14:35 PM 35.2167 -89.8167 239° Southwest 125 144 3,600 -316 Descending KMEM
Sun 08:15:29 PM 35.2167 -89.8667 270° West 125 144 3,300 -263 Descending KMEM
Sun 08:16:29 PM 35.2000 -89.9000 239° Southwest 122 140 3,100 -150 Descending KMEM
Sun 08:17:29 PM 35.2000 -89.9333 270° West 117 135 3,000 -105 Descending KMEM
Sun 08:18:23 PM 35.2000 -89.9667 270° West 116 133 2,900 -111 Descending KMEM

Login

Don't have an account? Register now (free) for customized features, flight alerts, and more!